sensor_id;sensor_type;location;lat;lon;timestamp;pressure;altitude;pressure_sealevel;temperature;humidity
68712;BME280;55690;51.566;19.198;2023-05-22T00:03:03;102041.89;;;16.62;74.46
68712;BME280;55690;51.566;19.198;2023-05-22T00:07:08;102043.84;;;16.49;74.69
68712;BME280;55690;51.566;19.198;2023-05-22T00:11:14;102037.46;;;16.38;75.40
68712;BME280;55690;51.566;19.198;2023-05-22T00:15:20;102034.20;;;16.33;77.03
68712;BME280;55690;51.566;19.198;2023-05-22T00:19:26;102033.97;;;16.36;76.13
68712;BME280;55690;51.566;19.198;2023-05-22T00:23:33;102028.45;;;16.24;75.53
68712;BME280;55690;51.566;19.198;2023-05-22T00:27:39;102018.59;;;16.22;74.58
68712;BME280;55690;51.566;19.198;2023-05-22T00:31:45;102014.78;;;16.36;74.59
68712;BME280;55690;51.566;19.198;2023-05-22T00:35:51;102017.76;;;16.33;74.50
68712;BME280;55690;51.566;19.198;2023-05-22T00:39:57;102014.73;;;16.24;74.98
68712;BME280;55690;51.566;19.198;2023-05-22T00:44:04;102009.73;;;16.18;75.13
68712;BME280;55690;51.566;19.198;2023-05-22T00:48:10;102013.63;;;16.27;74.90
68712;BME280;55690;51.566;19.198;2023-05-22T00:52:16;102018.63;;;15.98;75.44
68712;BME280;55690;51.566;19.198;2023-05-22T00:56:22;102021.48;;;15.96;75.66
68712;BME280;55690;51.566;19.198;2023-05-22T01:00:29;102021.84;;;15.92;75.87
68712;BME280;55690;51.566;19.198;2023-05-22T01:04:35;102015.14;;;15.96;75.56
68712;BME280;55690;51.566;19.198;2023-05-22T01:08:41;102019.21;;;15.90;75.94
68712;BME280;55690;51.566;19.198;2023-05-22T01:17:13;102026.48;;;15.79;75.91
68712;BME280;55690;51.566;19.198;2023-05-22T01:21:20;102017.96;;;15.71;76.46
68712;BME280;55690;51.566;19.198;2023-05-22T01:33:53;102031.96;;;15.29;77.71
68712;BME280;55690;51.566;19.198;2023-05-22T01:37:57;102022.55;;;15.34;77.85
68712;BME280;55690;51.566;19.198;2023-05-22T01:42:00;102028.13;;;15.32;77.75
68712;BME280;55690;51.566;19.198;2023-05-22T01:46:03;102030.01;;;15.19;77.47
68712;BME280;55690;51.566;19.198;2023-05-22T01:50:06;102033.98;;;15.15;78.57
68712;BME280;55690;51.566;19.198;2023-05-22T01:54:22;102028.95;;;15.09;78.43
68712;BME280;55690;51.566;19.198;2023-05-22T01:59:09;102026.33;;;14.94;78.80
68712;BME280;55690;51.566;19.198;2023-05-22T02:02:33;102023.15;;;15.13;78.21
68712;BME280;55690;51.566;19.198;2023-05-22T02:06:37;102024.36;;;15.09;77.97
68712;BME280;55690;51.566;19.198;2023-05-22T02:10:41;102030.38;;;15.02;78.55
68712;BME280;55690;51.566;19.198;2023-05-22T02:14:45;102023.16;;;14.88;79.54
68712;BME280;55690;51.566;19.198;2023-05-22T02:18:47;102024.04;;;14.88;78.99
68712;BME280;55690;51.566;19.198;2023-05-22T02:22:48;102022.73;;;14.94;77.98
68712;BME280;55690;51.566;19.198;2023-05-22T02:26:49;102025.78;;;14.89;77.84
68712;BME280;55690;51.566;19.198;2023-05-22T02:30:51;102015.72;;;14.90;78.63
68712;BME280;55690;51.566;19.198;2023-05-22T02:34:52;102010.14;;;14.91;77.35
68712;BME280;55690;51.566;19.198;2023-05-22T02:38:58;101982.26;;;14.48;78.79
68712;BME280;55690;51.566;19.198;2023-05-22T02:43:03;102019.02;;;14.57;78.67
68712;BME280;55690;51.566;19.198;2023-05-22T02:47:09;102009.38;;;14.51;79.39
68712;BME280;55690;51.566;19.198;2023-05-22T02:51:15;102005.66;;;14.52;79.57
68712;BME280;55690;51.566;19.198;2023-05-22T02:55:21;101999.66;;;14.60;79.62
68712;BME280;55690;51.566;19.198;2023-05-22T02:59:28;102003.24;;;14.73;79.14
68712;BME280;55690;51.566;19.198;2023-05-22T03:03:34;102008.20;;;14.68;79.57
68712;BME280;55690;51.566;19.198;2023-05-22T03:07:40;102010.48;;;14.61;79.17
68712;BME280;55690;51.566;19.198;2023-05-22T03:11:46;102005.46;;;14.68;78.63
68712;BME280;55690;51.566;19.198;2023-05-22T03:15:52;102002.06;;;14.52;79.41
68712;BME280;55690;51.566;19.198;2023-05-22T03:19:58;102005.16;;;14.33;80.13
68712;BME280;55690;51.566;19.198;2023-05-22T03:24:06;101999.91;;;14.30;80.56
68712;BME280;55690;51.566;19.198;2023-05-22T03:28:11;101997.62;;;14.37;81.60
68712;BME280;55690;51.566;19.198;2023-05-22T03:32:17;101994.60;;;14.41;81.47
68712;BME280;55690;51.566;19.198;2023-05-22T03:36:23;102016.05;;;14.08;83.36
68712;BME280;55690;51.566;19.198;2023-05-22T03:40:29;102020.84;;;14.04;83.33
68712;BME280;55690;51.566;19.198;2023-05-22T03:44:35;102000.94;;;14.42;82.62
68712;BME280;55690;51.566;19.198;2023-05-22T03:48:42;101999.17;;;14.28;83.76
68712;BME280;55690;51.566;19.198;2023-05-22T03:52:48;102007.21;;;14.69;83.44
68712;BME280;55690;51.566;19.198;2023-05-22T03:56:54;102002.59;;;14.82;83.51
68712;BME280;55690;51.566;19.198;2023-05-22T04:01:00;102001.77;;;15.18;81.29
68712;BME280;55690;51.566;19.198;2023-05-22T04:05:07;102004.88;;;15.14;81.21
68712;BME280;55690;51.566;19.198;2023-05-22T04:09:14;101998.12;;;15.43;81.18
68712;BME280;55690;51.566;19.198;2023-05-22T04:13:19;101993.38;;;15.82;80.08
68712;BME280;55690;51.566;19.198;2023-05-22T04:17:30;101986.75;;;15.97;80.79
68712;BME280;55690;51.566;19.198;2023-05-22T04:21:33;101986.88;;;16.07;81.01
68712;BME280;55690;51.566;19.198;2023-05-22T04:25:38;101984.86;;;16.33;78.42
68712;BME280;55690;51.566;19.198;2023-05-22T04:29:43;101972.67;;;16.48;78.73
68712;BME280;55690;51.566;19.198;2023-05-22T04:33:50;101986.34;;;16.94;77.88
68712;BME280;55690;51.566;19.198;2023-05-22T04:37:57;101984.84;;;16.90;79.06
68712;BME280;55690;51.566;19.198;2023-05-22T04:42:02;101979.86;;;17.06;78.04
68712;BME280;55690;51.566;19.198;2023-05-22T04:46:08;101981.61;;;17.18;78.67
68712;BME280;55690;51.566;19.198;2023-05-22T04:50:14;101976.94;;;17.41;78.24
68712;BME280;55690;51.566;19.198;2023-05-22T04:54:20;101973.95;;;17.44;78.97
68712;BME280;55690;51.566;19.198;2023-05-22T04:58:27;101969.67;;;17.74;76.85
68712;BME280;55690;51.566;19.198;2023-05-22T05:02:33;101966.25;;;18.13;77.94
68712;BME280;55690;51.566;19.198;2023-05-22T05:06:39;101967.12;;;18.14;77.91
68712;BME280;55690;51.566;19.198;2023-05-22T05:10:45;101968.60;;;18.18;76.25
68712;BME280;55690;51.566;19.198;2023-05-22T05:14:51;101968.47;;;18.19;75.78
68712;BME280;55690;51.566;19.198;2023-05-22T05:18:57;101976.45;;;18.64;76.84
68712;BME280;55690;51.566;19.198;2023-05-22T05:23:04;101976.39;;;19.06;74.95
68712;BME280;55690;51.566;19.198;2023-05-22T05:27:10;101975.23;;;19.48;73.98
68712;BME280;55690;51.566;19.198;2023-05-22T05:31:17;101973.77;;;19.44;72.00
68712;BME280;55690;51.566;19.198;2023-05-22T05:35:22;101980.06;;;19.66;71.54
68712;BME280;55690;51.566;19.198;2023-05-22T05:39:28;101976.74;;;19.72;70.40
68712;BME280;55690;51.566;19.198;2023-05-22T05:43:34;101968.62;;;20.47;70.81
68712;BME280;55690;51.566;19.198;2023-05-22T05:47:41;101969.83;;;20.82;71.14
68712;BME280;55690;51.566;19.198;2023-05-22T05:51:47;101974.38;;;20.73;68.35
68712;BME280;55690;51.566;19.198;2023-05-22T05:55:53;101972.83;;;21.63;69.38
68712;BME280;55690;51.566;19.198;2023-05-22T05:59:59;101963.74;;;21.88;65.62
68712;BME280;55690;51.566;19.198;2023-05-22T06:04:05;101967.09;;;22.53;64.11
68712;BME280;55690;51.566;19.198;2023-05-22T06:08:11;101962.43;;;22.53;62.46
68712;BME280;55690;51.566;19.198;2023-05-22T06:12:18;101959.09;;;23.28;63.70
68712;BME280;55690;51.566;19.198;2023-05-22T06:16:24;101963.97;;;23.00;60.62
68712;BME280;55690;51.566;19.198;2023-05-22T06:20:30;101955.83;;;23.40;59.06
68712;BME280;55690;51.566;19.198;2023-05-22T06:24:36;101950.31;;;24.47;60.19
68712;BME280;55690;51.566;19.198;2023-05-22T06:28:45;101951.42;;;25.10;56.80
68712;BME280;55690;51.566;19.198;2023-05-22T06:32:48;101950.23;;;25.04;56.82
68712;BME280;55690;51.566;19.198;2023-05-22T06:36:54;101949.94;;;25.61;57.03
68712;BME280;55690;51.566;19.198;2023-05-22T06:41:01;101950.56;;;25.79;57.10
68712;BME280;55690;51.566;19.198;2023-05-22T06:45:07;101955.17;;;25.64;55.12
68712;BME280;55690;51.566;19.198;2023-05-22T06:49:13;101953.46;;;25.16;54.18
68712;BME280;55690;51.566;19.198;2023-05-22T06:53:19;101953.36;;;24.85;52.05
68712;BME280;55690;51.566;19.198;2023-05-22T06:57:25;101939.98;;;25.75;53.20
68712;BME280;55690;51.566;19.198;2023-05-22T07:01:32;101942.28;;;26.17;54.24
68712;BME280;55690;51.566;19.198;2023-05-22T07:05:38;101941.84;;;26.05;51.64
68712;BME280;55690;51.566;19.198;2023-05-22T07:09:44;101944.99;;;25.48;50.77
68712;BME280;55690;51.566;19.198;2023-05-22T07:13:50;101950.00;;;26.07;53.30
68712;BME280;55690;51.566;19.198;2023-05-22T07:17:56;101946.47;;;25.59;50.03
68712;BME280;55690;51.566;19.198;2023-05-22T07:22:02;101941.35;;;25.79;50.49
68712;BME280;55690;51.566;19.198;2023-05-22T07:26:08;101956.46;;;26.68;51.38
68712;BME280;55690;51.566;19.198;2023-05-22T07:30:15;101950.97;;;26.60;51.66
68712;BME280;55690;51.566;19.198;2023-05-22T07:34:21;101954.34;;;26.09;50.01
68712;BME280;55690;51.566;19.198;2023-05-22T07:38:27;101950.53;;;26.33;49.40
68712;BME280;55690;51.566;19.198;2023-05-22T07:42:33;101946.66;;;26.87;51.25
68712;BME280;55690;51.566;19.198;2023-05-22T07:46:39;101947.00;;;26.39;48.36
68712;BME280;55690;51.566;19.198;2023-05-22T07:50:45;101949.51;;;26.03;49.20
68712;BME280;55690;51.566;19.198;2023-05-22T07:54:51;101956.32;;;26.24;49.93
68712;BME280;55690;51.566;19.198;2023-05-22T07:58:58;101944.64;;;26.66;49.73
68712;BME280;55690;51.566;19.198;2023-05-22T08:03:04;101940.72;;;24.74;49.19
68712;BME280;55690;51.566;19.198;2023-05-22T08:07:10;101946.81;;;26.41;50.13
68712;BME280;55690;51.566;19.198;2023-05-22T08:11:16;101953.12;;;25.89;48.56
68712;BME280;55690;51.566;19.198;2023-05-22T08:15:23;101949.88;;;26.00;50.19
68712;BME280;55690;51.566;19.198;2023-05-22T08:19:28;101940.23;;;26.11;49.30
68712;BME280;55690;51.566;19.198;2023-05-22T08:23:35;101941.75;;;25.99;49.09
68712;BME280;55690;51.566;19.198;2023-05-22T08:27:41;101941.35;;;25.79;48.06
68712;BME280;55690;51.566;19.198;2023-05-22T08:31:47;101938.66;;;26.39;48.77
68712;BME280;55690;51.566;19.198;2023-05-22T08:35:53;101950.02;;;26.30;49.23
68712;BME280;55690;51.566;19.198;2023-05-22T08:39:59;101942.27;;;25.71;46.40
68712;BME280;55690;51.566;19.198;2023-05-22T08:44:05;101942.12;;;26.41;48.50
68712;BME280;55690;51.566;19.198;2023-05-22T08:48:12;101945.92;;;26.17;48.17
68712;BME280;55690;51.566;19.198;2023-05-22T08:52:21;101944.38;;;26.15;47.04
68712;BME280;55690;51.566;19.198;2023-05-22T08:56:26;101935.28;;;25.44;47.84
68712;BME280;55690;51.566;19.198;2023-05-22T09:00:31;101932.38;;;25.69;48.07
68712;BME280;55690;51.566;19.198;2023-05-22T09:04:36;101926.02;;;25.83;47.79
68712;BME280;55690;51.566;19.198;2023-05-22T09:08:42;101922.78;;;25.40;48.19
68712;BME280;55690;51.566;19.198;2023-05-22T09:17:04;101914.63;;;25.70;46.15
68712;BME280;55690;51.566;19.198;2023-05-22T09:21:07;101903.38;;;26.32;47.47
68712;BME280;55690;51.566;19.198;2023-05-22T09:25:17;101903.15;;;26.86;48.09
68712;BME280;55690;51.566;19.198;2023-05-22T09:29:19;101912.63;;;26.62;47.52
68712;BME280;55690;51.566;19.198;2023-05-22T09:33:22;101909.34;;;26.43;48.80
68712;BME280;55690;51.566;19.198;2023-05-22T09:37:27;101903.12;;;26.41;48.46
68712;BME280;55690;51.566;19.198;2023-05-22T09:41:35;101906.46;;;26.37;47.79
68712;BME280;55690;51.566;19.198;2023-05-22T09:45:38;101912.28;;;26.79;47.07
68712;BME280;55690;51.566;19.198;2023-05-22T09:49:44;101894.65;;;26.49;47.45
68712;BME280;55690;51.566;19.198;2023-05-22T09:53:54;101893.66;;;26.05;47.90
68712;BME280;55690;51.566;19.198;2023-05-22T09:58:02;101893.60;;;25.67;48.19
68712;BME280;55690;51.566;19.198;2023-05-22T10:02:05;101885.00;;;27.04;48.84
68712;BME280;55690;51.566;19.198;2023-05-22T10:06:09;101886.63;;;26.99;48.13
68712;BME280;55690;51.566;19.198;2023-05-22T10:10:17;101888.05;;;27.24;48.50
68712;BME280;55690;51.566;19.198;2023-05-22T10:14:21;101888.35;;;27.14;48.02
68712;BME280;55690;51.566;19.198;2023-05-22T10:18:27;101882.97;;;26.69;47.05
68712;BME280;55690;51.566;19.198;2023-05-22T10:22:35;101888.38;;;27.36;48.49
68712;BME280;55690;51.566;19.198;2023-05-22T10:26:39;101890.15;;;26.93;46.83
68712;BME280;55690;51.566;19.198;2023-05-22T10:43:28;101856.45;;;27.38;47.00
68712;BME280;55690;51.566;19.198;2023-05-22T10:47:32;101857.28;;;27.54;45.73
68712;BME280;55690;51.566;19.198;2023-05-22T10:51:34;101852.79;;;27.95;46.03
68712;BME280;55690;51.566;19.198;2023-05-22T10:59:49;101834.97;;;27.96;46.29
68712;BME280;55690;51.566;19.198;2023-05-22T11:03:57;101832.01;;;27.40;45.65
68712;BME280;55690;51.566;19.198;2023-05-22T11:08:47;101839.10;;;27.22;45.79
68712;BME280;55690;51.566;19.198;2023-05-22T11:16:31;101822.48;;;27.92;44.85
68712;BME280;55690;51.566;19.198;2023-05-22T11:20:36;101825.60;;;27.82;46.84
68712;BME280;55690;51.566;19.198;2023-05-22T11:24:39;101805.86;;;27.84;46.33
68712;BME280;55690;51.566;19.198;2023-05-22T11:28:42;101787.49;;;27.68;44.72
68712;BME280;55690;51.566;19.198;2023-05-22T11:32:46;101801.47;;;28.52;45.43
68712;BME280;55690;51.566;19.198;2023-05-22T11:36:48;101801.60;;;27.45;44.20
68712;BME280;55690;51.566;19.198;2023-05-22T11:40:50;101797.48;;;27.84;44.06
68712;BME280;55690;51.566;19.198;2023-05-22T11:44:53;101794.09;;;27.25;44.58
68712;BME280;55690;51.566;19.198;2023-05-22T11:48:55;101799.27;;;27.49;44.07
68712;BME280;55690;51.566;19.198;2023-05-22T11:52:57;101797.42;;;26.99;44.04
68712;BME280;55690;51.566;19.198;2023-05-22T11:57:03;101796.20;;;26.57;44.85
68712;BME280;55690;51.566;19.198;2023-05-22T12:01:04;101798.06;;;27.15;45.50
68712;BME280;55690;51.566;19.198;2023-05-22T12:05:09;101790.56;;;27.16;46.48
68712;BME280;55690;51.566;19.198;2023-05-22T12:09:13;101793.30;;;27.73;46.96
68712;BME280;55690;51.566;19.198;2023-05-22T12:13:27;101784.91;;;27.95;45.18
68712;BME280;55690;51.566;19.198;2023-05-22T12:17:29;101789.80;;;28.14;45.48
68712;BME280;55690;51.566;19.198;2023-05-22T12:21:32;101790.96;;;27.98;44.98
68712;BME280;55690;51.566;19.198;2023-05-22T12:25:38;101785.84;;;28.30;43.82
68712;BME280;55690;51.566;19.198;2023-05-22T12:29:44;101778.66;;;27.65;44.52
68712;BME280;55690;51.566;19.198;2023-05-22T12:33:54;101777.12;;;27.62;45.96
68712;BME280;55690;51.566;19.198;2023-05-22T12:37:56;101775.38;;;28.10;45.78
68712;BME280;55690;51.566;19.198;2023-05-22T12:42:03;101781.91;;;27.68;45.09
68712;BME280;55690;51.566;19.198;2023-05-22T12:46:09;101770.58;;;27.76;44.59
68712;BME280;55690;51.566;19.198;2023-05-22T12:50:15;101771.46;;;26.98;45.65
68712;BME280;55690;51.566;19.198;2023-05-22T12:54:21;101773.23;;;27.42;46.33
68712;BME280;55690;51.566;19.198;2023-05-22T12:58:27;101772.42;;;27.91;45.70
68712;BME280;55690;51.566;19.198;2023-05-22T13:02:33;101776.24;;;28.11;45.63
68712;BME280;55690;51.566;19.198;2023-05-22T13:06:39;101759.78;;;27.95;45.27
68712;BME280;55690;51.566;19.198;2023-05-22T13:10:45;101763.27;;;27.54;46.21
68712;BME280;55690;51.566;19.198;2023-05-22T13:14:52;101765.80;;;27.28;45.67
68712;BME280;55690;51.566;19.198;2023-05-22T13:18:58;101759.76;;;27.24;44.98
68712;BME280;55690;51.566;19.198;2023-05-22T13:23:04;101764.72;;;26.93;46.61
68712;BME280;55690;51.566;19.198;2023-05-22T13:27:10;101760.00;;;27.08;46.49
68712;BME280;55690;51.566;19.198;2023-05-22T13:31:17;101754.77;;;26.83;45.59
68712;BME280;55690;51.566;19.198;2023-05-22T13:35:23;101751.05;;;27.55;46.18
68712;BME280;55690;51.566;19.198;2023-05-22T13:39:29;101737.59;;;27.59;46.90
68712;BME280;55690;51.566;19.198;2023-05-22T13:43:35;101735.03;;;27.00;46.67
68712;BME280;55690;51.566;19.198;2023-05-22T13:47:41;101727.62;;;26.92;46.01
68712;BME280;55690;51.566;19.198;2023-05-22T13:51:47;101729.87;;;27.39;45.98
68712;BME280;55690;51.566;19.198;2023-05-22T13:55:53;101715.80;;;27.26;45.76
68712;BME280;55690;51.566;19.198;2023-05-22T13:59:59;101723.51;;;27.24;45.64
68712;BME280;55690;51.566;19.198;2023-05-22T14:04:05;101727.00;;;27.54;46.48
68712;BME280;55690;51.566;19.198;2023-05-22T14:08:12;101723.76;;;27.08;45.54
68712;BME280;55690;51.566;19.198;2023-05-22T14:12:18;101715.09;;;26.81;47.32
68712;BME280;55690;51.566;19.198;2023-05-22T14:16:24;101698.91;;;26.26;46.27
68712;BME280;55690;51.566;19.198;2023-05-22T14:20:30;101701.34;;;26.80;47.21
68712;BME280;55690;51.566;19.198;2023-05-22T14:24:36;101706.01;;;26.29;46.04
68712;BME280;55690;51.566;19.198;2023-05-22T14:28:42;101702.13;;;26.74;47.34
68712;BME280;55690;51.566;19.198;2023-05-22T14:32:49;101700.43;;;26.43;47.00
68712;BME280;55690;51.566;19.198;2023-05-22T14:36:55;101689.30;;;26.29;47.16
68712;BME280;55690;51.566;19.198;2023-05-22T14:41:01;101698.05;;;26.26;48.54
68712;BME280;55690;51.566;19.198;2023-05-22T14:45:08;101696.02;;;26.49;46.31
68712;BME280;55690;51.566;19.198;2023-05-22T14:49:13;101681.88;;;26.65;46.59
68712;BME280;55690;51.566;19.198;2023-05-22T14:53:20;101679.16;;;26.72;47.51
68712;BME280;55690;51.566;19.198;2023-05-22T14:57:26;101687.77;;;26.26;46.81
68712;BME280;55690;51.566;19.198;2023-05-22T15:01:32;101685.32;;;26.67;46.79
68712;BME280;55690;51.566;19.198;2023-05-22T15:05:38;101687.60;;;26.42;47.15
68712;BME280;55690;51.566;19.198;2023-05-22T15:09:44;101680.45;;;26.55;46.91
68712;BME280;55690;51.566;19.198;2023-05-22T15:13:50;101686.31;;;26.01;46.87
68712;BME280;55690;51.566;19.198;2023-05-22T15:17:56;101673.08;;;25.73;45.92
68712;BME280;55690;51.566;19.198;2023-05-22T15:22:04;101673.00;;;26.40;47.34
68712;BME280;55690;51.566;19.198;2023-05-22T15:26:09;101663.96;;;26.09;46.64
68712;BME280;55690;51.566;19.198;2023-05-22T15:30:15;101660.21;;;25.72;47.62
68712;BME280;55690;51.566;19.198;2023-05-22T15:34:21;101661.88;;;25.59;47.69
68712;BME280;55690;51.566;19.198;2023-05-22T15:38:27;101653.05;;;25.40;48.34
68712;BME280;55690;51.566;19.198;2023-05-22T15:42:33;101655.27;;;25.45;48.95
68712;BME280;55690;51.566;19.198;2023-05-22T15:46:39;101659.78;;;25.61;48.76
68712;BME280;55690;51.566;19.198;2023-05-22T15:50:46;101651.02;;;25.34;48.37
68712;BME280;55690;51.566;19.198;2023-05-22T15:54:52;101655.09;;;25.24;48.64
68712;BME280;55690;51.566;19.198;2023-05-22T15:58:58;101643.98;;;25.24;48.79
68712;BME280;55690;51.566;19.198;2023-05-22T16:03:04;101640.22;;;25.16;49.21
68712;BME280;55690;51.566;19.198;2023-05-22T16:07:10;101642.98;;;24.71;49.70
68712;BME280;55690;51.566;19.198;2023-05-22T16:11:16;101639.91;;;24.88;49.73
68712;BME280;55690;51.566;19.198;2023-05-22T16:15:23;101630.82;;;24.49;49.02
68712;BME280;55690;51.566;19.198;2023-05-22T16:19:29;101638.23;;;24.57;49.23
68712;BME280;55690;51.566;19.198;2023-05-22T16:23:35;101642.56;;;24.82;49.82
68712;BME280;55690;51.566;19.198;2023-05-22T16:27:41;101634.00;;;24.69;49.05
68712;BME280;55690;51.566;19.198;2023-05-22T16:31:47;101617.38;;;24.30;48.79
68712;BME280;55690;51.566;19.198;2023-05-22T16:35:53;101636.23;;;24.42;49.27
68712;BME280;55690;51.566;19.198;2023-05-22T16:40:00;101625.63;;;24.07;49.53
68712;BME280;55690;51.566;19.198;2023-05-22T16:44:06;101635.36;;;24.42;49.32
68712;BME280;55690;51.566;19.198;2023-05-22T16:48:12;101633.45;;;24.42;49.88
68712;BME280;55690;51.566;19.198;2023-05-22T16:52:18;101645.17;;;24.21;50.12
68712;BME280;55690;51.566;19.198;2023-05-22T16:56:25;101651.30;;;24.09;50.17
68712;BME280;55690;51.566;19.198;2023-05-22T17:00:30;101649.17;;;24.19;50.69
68712;BME280;55690;51.566;19.198;2023-05-22T17:04:36;101653.41;;;23.99;50.43
68712;BME280;55690;51.566;19.198;2023-05-22T17:08:43;101650.27;;;24.02;50.36
68712;BME280;55690;51.566;19.198;2023-05-22T17:12:49;101654.95;;;24.01;50.82
68712;BME280;55690;51.566;19.198;2023-05-22T17:16:55;101650.48;;;23.92;50.82
68712;BME280;55690;51.566;19.198;2023-05-22T17:21:01;101656.36;;;23.97;51.24
68712;BME280;55690;51.566;19.198;2023-05-22T17:25:08;101650.89;;;23.73;52.27
68712;BME280;55690;51.566;19.198;2023-05-22T17:29:13;101656.47;;;23.57;52.22
68712;BME280;55690;51.566;19.198;2023-05-22T17:33:20;101658.73;;;23.53;52.58
68712;BME280;55690;51.566;19.198;2023-05-22T17:37:26;101643.67;;;23.15;53.09
68712;BME280;55690;51.566;19.198;2023-05-22T17:41:32;101645.35;;;23.48;52.70
68712;BME280;55690;51.566;19.198;2023-05-22T17:45:38;101646.78;;;23.28;52.82
68712;BME280;55690;51.566;19.198;2023-05-22T17:49:44;101637.73;;;23.42;53.11
68712;BME280;55690;51.566;19.198;2023-05-22T17:53:50;101635.66;;;23.44;52.94
68712;BME280;55690;51.566;19.198;2023-05-22T17:57:58;101637.39;;;23.45;53.05
68712;BME280;55690;51.566;19.198;2023-05-22T18:02:03;101642.63;;;23.16;53.74
68712;BME280;55690;51.566;19.198;2023-05-22T18:06:09;101641.59;;;23.17;53.69
68712;BME280;55690;51.566;19.198;2023-05-22T18:10:15;101635.87;;;23.18;54.08
68712;BME280;55690;51.566;19.198;2023-05-22T18:14:21;101642.45;;;23.09;54.43
68712;BME280;55690;51.566;19.198;2023-05-22T18:18:27;101640.22;;;22.88;56.66
68712;BME280;55690;51.566;19.198;2023-05-22T18:22:34;101637.59;;;22.79;56.76
68712;BME280;55690;51.566;19.198;2023-05-22T18:26:40;101641.34;;;22.62;57.75
68712;BME280;55690;51.566;19.198;2023-05-22T18:30:46;101633.89;;;22.46;57.25
68712;BME280;55690;51.566;19.198;2023-05-22T18:34:52;101633.50;;;22.33;57.51
68712;BME280;55690;51.566;19.198;2023-05-22T18:39:01;101634.30;;;22.17;57.73
68712;BME280;55690;51.566;19.198;2023-05-22T18:43:07;101642.26;;;21.86;58.11
68712;BME280;55690;51.566;19.198;2023-05-22T18:47:13;101642.31;;;21.60;60.10
68712;BME280;55690;51.566;19.198;2023-05-22T18:51:19;101650.57;;;21.34;60.58
68712;BME280;55690;51.566;19.198;2023-05-22T18:55:25;101649.73;;;21.16;60.12
68712;BME280;55690;51.566;19.198;2023-05-22T18:59:31;101643.52;;;20.96;60.54
68712;BME280;55690;51.566;19.198;2023-05-22T19:03:38;101650.40;;;20.74;61.27
68712;BME280;55690;51.566;19.198;2023-05-22T19:07:44;101650.06;;;20.59;61.79
68712;BME280;55690;51.566;19.198;2023-05-22T19:11:50;101652.77;;;20.69;60.37
68712;BME280;55690;51.566;19.198;2023-05-22T19:15:56;101658.57;;;20.48;61.72
68712;BME280;55690;51.566;19.198;2023-05-22T19:20:03;101652.54;;;20.35;62.27
68712;BME280;55690;51.566;19.198;2023-05-22T19:24:08;101658.72;;;20.19;63.72
68712;BME280;55690;51.566;19.198;2023-05-22T19:28:15;101654.57;;;20.06;63.54
68712;BME280;55690;51.566;19.198;2023-05-22T19:32:21;101654.01;;;20.02;64.44
68712;BME280;55690;51.566;19.198;2023-05-22T19:36:27;101647.70;;;19.92;63.70
68712;BME280;55690;51.566;19.198;2023-05-22T19:40:33;101659.93;;;19.80;64.17
68712;BME280;55690;51.566;19.198;2023-05-22T19:44:39;101648.66;;;19.64;64.27
68712;BME280;55690;51.566;19.198;2023-05-22T19:48:45;101655.94;;;19.55;65.85
68712;BME280;55690;51.566;19.198;2023-05-22T19:52:51;101659.88;;;19.43;65.47
68712;BME280;55690;51.566;19.198;2023-05-22T19:56:58;101655.98;;;19.26;65.97
68712;BME280;55690;51.566;19.198;2023-05-22T20:01:04;101654.11;;;19.17;65.77
68712;BME280;55690;51.566;19.198;2023-05-22T20:05:10;101653.39;;;19.15;66.16
68712;BME280;55690;51.566;19.198;2023-05-22T20:09:16;101649.91;;;19.13;66.56
68712;BME280;55690;51.566;19.198;2023-05-22T20:13:22;101654.45;;;19.04;66.82
68712;BME280;55690;51.566;19.198;2023-05-22T20:17:29;101657.05;;;19.06;67.18
68712;BME280;55690;51.566;19.198;2023-05-22T20:21:35;101654.00;;;18.89;66.77
68712;BME280;55690;51.566;19.198;2023-05-22T20:25:41;101646.31;;;18.74;66.26
68712;BME280;55690;51.566;19.198;2023-05-22T20:29:47;101643.23;;;18.48;68.86
68712;BME280;55690;51.566;19.198;2023-05-22T20:33:53;101637.73;;;18.48;69.13
68712;BME280;55690;51.566;19.198;2023-05-22T20:38:00;101635.55;;;18.42;68.37
68712;BME280;55690;51.566;19.198;2023-05-22T20:42:06;101630.35;;;18.48;69.05
68712;BME280;55690;51.566;19.198;2023-05-22T20:46:12;101631.19;;;18.29;69.93
68712;BME280;55690;51.566;19.198;2023-05-22T20:50:18;101635.55;;;18.42;68.87
68712;BME280;55690;51.566;19.198;2023-05-22T20:54:24;101627.30;;;18.42;68.62
68712;BME280;55690;51.566;19.198;2023-05-22T20:58:30;101627.58;;;18.39;67.83
68712;BME280;55690;51.566;19.198;2023-05-22T21:02:36;101624.23;;;18.25;68.07
68712;BME280;55690;51.566;19.198;2023-05-22T21:06:43;101619.53;;;17.97;69.39
68712;BME280;55690;51.566;19.198;2023-05-22T21:10:49;101629.97;;;18.03;68.52
68712;BME280;55690;51.566;19.198;2023-05-22T21:14:55;101626.24;;;18.14;67.55
68712;BME280;55690;51.566;19.198;2023-05-22T21:19:01;101628.93;;;17.94;69.46
68712;BME280;55690;51.566;19.198;2023-05-22T21:23:07;101631.36;;;17.88;69.12
68712;BME280;55690;51.566;19.198;2023-05-22T21:27:13;101624.02;;;17.98;69.15
68712;BME280;55690;51.566;19.198;2023-05-22T21:31:20;101634.94;;;17.79;71.09
68712;BME280;55690;51.566;19.198;2023-05-22T21:35:26;101636.30;;;17.63;69.76
68712;BME280;55690;51.566;19.198;2023-05-22T21:39:32;101626.81;;;17.68;69.59
68712;BME280;55690;51.566;19.198;2023-05-22T21:43:38;101641.46;;;17.57;70.38
68712;BME280;55690;51.566;19.198;2023-05-22T21:47:44;101633.09;;;17.58;69.87